sensor_id;sensor_type;location;lat;lon;timestamp;temperature;humidity
16767;DHT22;8501;49.926;8.404;2023-08-06T00:01:50;18.50;99.90
16767;DHT22;8501;49.926;8.404;2023-08-06T00:04:15;18.50;99.90
16767;DHT22;8501;49.926;8.404;2023-08-06T00:06:41;18.50;99.90
16767;DHT22;8501;49.926;8.404;2023-08-06T00:09:06;18.50;99.90
16767;DHT22;8501;49.926;8.404;2023-08-06T00:11:32;18.40;99.90
16767;DHT22;8501;49.926;8.404;2023-08-06T00:13:57;18.40;99.90
16767;DHT22;8501;49.926;8.404;2023-08-06T00:16:23;18.50;99.90
16767;DHT22;8501;49.926;8.404;2023-08-06T00:18:49;18.40;99.90
16767;DHT22;8501;49.926;8.404;2023-08-06T00:21:14;18.40;99.90
16767;DHT22;8501;49.926;8.404;2023-08-06T00:23:40;18.40;99.90
16767;DHT22;8501;49.926;8.404;2023-08-06T00:26:06;18.40;99.90
16767;DHT22;8501;49.926;8.404;2023-08-06T00:28:31;18.40;99.90
16767;DHT22;8501;49.926;8.404;2023-08-06T00:30:57;18.40;99.90
16767;DHT22;8501;49.926;8.404;2023-08-06T00:33:23;18.30;99.90
16767;DHT22;8501;49.926;8.404;2023-08-06T00:35:49;18.30;99.90
16767;DHT22;8501;49.926;8.404;2023-08-06T00:38:15;18.40;99.90
16767;DHT22;8501;49.926;8.404;2023-08-06T00:40:40;18.40;99.90
16767;DHT22;8501;49.926;8.404;2023-08-06T00:43:06;18.40;99.90
16767;DHT22;8501;49.926;8.404;2023-08-06T00:45:35;18.30;99.90
16767;DHT22;8501;49.926;8.404;2023-08-06T00:48:01;18.40;99.90
16767;DHT22;8501;49.926;8.404;2023-08-06T00:50:27;18.30;99.90
16767;DHT22;8501;49.926;8.404;2023-08-06T00:52:53;18.30;99.90
16767;DHT22;8501;49.926;8.404;2023-08-06T00:55:19;18.30;99.90
16767;DHT22;8501;49.926;8.404;2023-08-06T00:57:45;18.30;99.90
16767;DHT22;8501;49.926;8.404;2023-08-06T01:00:11;18.30;99.90
16767;DHT22;8501;49.926;8.404;2023-08-06T01:02:37;18.30;99.90
16767;DHT22;8501;49.926;8.404;2023-08-06T01:05:03;18.30;99.90
16767;DHT22;8501;49.926;8.404;2023-08-06T01:13:28;18.30;99.90
16767;DHT22;8501;49.926;8.404;2023-08-06T01:15:58;18.30;99.90
16767;DHT22;8501;49.926;8.404;2023-08-06T01:18:25;18.30;99.90
16767;DHT22;8501;49.926;8.404;2023-08-06T01:20:51;18.30;99.90
16767;DHT22;8501;49.926;8.404;2023-08-06T01:23:17;18.20;99.90
16767;DHT22;8501;49.926;8.404;2023-08-06T01:28:26;18.20;99.90
16767;DHT22;8501;49.926;8.404;2023-08-06T01:30:55;18.20;99.90
16767;DHT22;8501;49.926;8.404;2023-08-06T01:33:21;18.20;99.90
16767;DHT22;8501;49.926;8.404;2023-08-06T01:35:49;18.20;99.90
16767;DHT22;8501;49.926;8.404;2023-08-06T01:38:15;18.20;99.90
16767;DHT22;8501;49.926;8.404;2023-08-06T01:40:41;18.20;99.90
16767;DHT22;8501;49.926;8.404;2023-08-06T01:43:06;18.10;99.90
16767;DHT22;8501;49.926;8.404;2023-08-06T01:45:32;18.10;99.90
16767;DHT22;8501;49.926;8.404;2023-08-06T01:47:57;18.10;99.90
16767;DHT22;8501;49.926;8.404;2023-08-06T01:50:23;18.10;99.90
16767;DHT22;8501;49.926;8.404;2023-08-06T01:52:49;18.10;99.90
16767;DHT22;8501;49.926;8.404;2023-08-06T01:55:14;18.10;99.90
16767;DHT22;8501;49.926;8.404;2023-08-06T01:57:40;18.10;99.90
16767;DHT22;8501;49.926;8.404;2023-08-06T02:00:06;18.00;99.90
16767;DHT22;8501;49.926;8.404;2023-08-06T02:02:31;18.00;99.90
16767;DHT22;8501;49.926;8.404;2023-08-06T02:04:59;18.00;99.90
16767;DHT22;8501;49.926;8.404;2023-08-06T02:07:24;18.00;99.90
16767;DHT22;8501;49.926;8.404;2023-08-06T02:09:50;18.00;99.90
16767;DHT22;8501;49.926;8.404;2023-08-06T02:12:15;18.00;99.90
16767;DHT22;8501;49.926;8.404;2023-08-06T02:14:41;18.00;99.90
16767;DHT22;8501;49.926;8.404;2023-08-06T02:17:06;18.00;99.90
16767;DHT22;8501;49.926;8.404;2023-08-06T02:19:32;18.00;99.90
16767;DHT22;8501;49.926;8.404;2023-08-06T02:21:57;18.00;99.90
16767;DHT22;8501;49.926;8.404;2023-08-06T02:24:23;18.00;99.90
16767;DHT22;8501;49.926;8.404;2023-08-06T02:26:48;18.00;99.90
16767;DHT22;8501;49.926;8.404;2023-08-06T02:29:17;18.00;99.90
16767;DHT22;8501;49.926;8.404;2023-08-06T02:31:42;17.90;99.90
16767;DHT22;8501;49.926;8.404;2023-08-06T02:34:08;17.90;99.90
16767;DHT22;8501;49.926;8.404;2023-08-06T02:36:33;17.90;99.90
16767;DHT22;8501;49.926;8.404;2023-08-06T02:38:59;18.00;99.90
16767;DHT22;8501;49.926;8.404;2023-08-06T02:41:24;18.00;99.90
16767;DHT22;8501;49.926;8.404;2023-08-06T02:43:50;17.90;99.90
16767;DHT22;8501;49.926;8.404;2023-08-06T02:46:15;17.90;99.90
16767;DHT22;8501;49.926;8.404;2023-08-06T02:48:41;17.90;99.90
16767;DHT22;8501;49.926;8.404;2023-08-06T02:51:06;17.90;99.90
16767;DHT22;8501;49.926;8.404;2023-08-06T02:53:32;17.90;99.90
16767;DHT22;8501;49.926;8.404;2023-08-06T02:55:57;18.00;99.90
16767;DHT22;8501;49.926;8.404;2023-08-06T02:58:24;18.00;99.90
16767;DHT22;8501;49.926;8.404;2023-08-06T03:01:06;18.00;99.90
16767;DHT22;8501;49.926;8.404;2023-08-06T03:03:32;18.00;99.90
16767;DHT22;8501;49.926;8.404;2023-08-06T03:05:58;17.90;99.90
16767;DHT22;8501;49.926;8.404;2023-08-06T03:08:24;17.90;99.90
16767;DHT22;8501;49.926;8.404;2023-08-06T03:10:50;17.90;99.90
16767;DHT22;8501;49.926;8.404;2023-08-06T03:13:19;17.90;99.90
16767;DHT22;8501;49.926;8.404;2023-08-06T03:15:57;17.80;99.90
16767;DHT22;8501;49.926;8.404;2023-08-06T03:18:23;17.80;99.90
16767;DHT22;8501;49.926;8.404;2023-08-06T03:20:49;17.80;99.90
16767;DHT22;8501;49.926;8.404;2023-08-06T03:23:15;17.80;99.90
16767;DHT22;8501;49.926;8.404;2023-08-06T03:25:41;17.80;99.90
16767;DHT22;8501;49.926;8.404;2023-08-06T03:28:06;17.80;99.90
16767;DHT22;8501;49.926;8.404;2023-08-06T03:30:32;17.80;99.90
16767;DHT22;8501;49.926;8.404;2023-08-06T03:32:57;17.70;99.90
16767;DHT22;8501;49.926;8.404;2023-08-06T03:35:23;17.80;99.90
16767;DHT22;8501;49.926;8.404;2023-08-06T03:37:48;17.80;99.90
16767;DHT22;8501;49.926;8.404;2023-08-06T03:40:15;17.80;99.90
16767;DHT22;8501;49.926;8.404;2023-08-06T03:42:40;17.70;99.90
16767;DHT22;8501;49.926;8.404;2023-08-06T03:45:06;17.60;99.90
16767;DHT22;8501;49.926;8.404;2023-08-06T03:47:32;17.60;99.90
16767;DHT22;8501;49.926;8.404;2023-08-06T03:49:58;17.60;99.90
16767;DHT22;8501;49.926;8.404;2023-08-06T03:52:23;17.60;99.90
16767;DHT22;8501;49.926;8.404;2023-08-06T03:54:49;17.70;99.90
16767;DHT22;8501;49.926;8.404;2023-08-06T03:57:14;17.60;99.90
16767;DHT22;8501;49.926;8.404;2023-08-06T03:59:41;17.60;99.90
16767;DHT22;8501;49.926;8.404;2023-08-06T04:02:06;17.60;99.90
16767;DHT22;8501;49.926;8.404;2023-08-06T04:04:32;17.60;99.90
16767;DHT22;8501;49.926;8.404;2023-08-06T04:06:57;17.50;99.90
16767;DHT22;8501;49.926;8.404;2023-08-06T04:09:23;17.50;99.90
16767;DHT22;8501;49.926;8.404;2023-08-06T04:11:48;17.40;99.90
16767;DHT22;8501;49.926;8.404;2023-08-06T04:14:14;17.40;99.90
16767;DHT22;8501;49.926;8.404;2023-08-06T04:16:39;17.50;99.90
16767;DHT22;8501;49.926;8.404;2023-08-06T04:19:05;17.50;99.90
16767;DHT22;8501;49.926;8.404;2023-08-06T04:21:30;17.50;99.90
16767;DHT22;8501;49.926;8.404;2023-08-06T04:23:56;17.50;99.90
16767;DHT22;8501;49.926;8.404;2023-08-06T04:26:22;17.40;99.90
16767;DHT22;8501;49.926;8.404;2023-08-06T04:28:48;17.40;99.90
16767;DHT22;8501;49.926;8.404;2023-08-06T04:31:14;17.40;99.90
16767;DHT22;8501;49.926;8.404;2023-08-06T04:33:40;17.20;99.90
16767;DHT22;8501;49.926;8.404;2023-08-06T04:36:06;17.30;99.90
16767;DHT22;8501;49.926;8.404;2023-08-06T04:38:31;17.30;99.90
16767;DHT22;8501;49.926;8.404;2023-08-06T04:40:58;17.30;99.90
16767;DHT22;8501;49.926;8.404;2023-08-06T04:43:23;17.20;99.90
16767;DHT22;8501;49.926;8.404;2023-08-06T04:45:50;17.30;99.90
16767;DHT22;8501;49.926;8.404;2023-08-06T04:48:16;17.20;99.90
16767;DHT22;8501;49.926;8.404;2023-08-06T04:50:49;17.20;99.90
16767;DHT22;8501;49.926;8.404;2023-08-06T04:53:15;17.00;99.90
16767;DHT22;8501;49.926;8.404;2023-08-06T04:55:41;17.00;99.90
16767;DHT22;8501;49.926;8.404;2023-08-06T04:58:06;17.10;99.90
16767;DHT22;8501;49.926;8.404;2023-08-06T05:00:33;17.00;99.90
16767;DHT22;8501;49.926;8.404;2023-08-06T05:03:02;17.00;99.90
16767;DHT22;8501;49.926;8.404;2023-08-06T05:05:28;17.10;99.90
16767;DHT22;8501;49.926;8.404;2023-08-06T05:07:55;17.10;99.90
16767;DHT22;8501;49.926;8.404;2023-08-06T05:10:21;17.10;99.90
16767;DHT22;8501;49.926;8.404;2023-08-06T05:12:46;17.10;99.90
16767;DHT22;8501;49.926;8.404;2023-08-06T05:15:12;17.10;99.90
16767;DHT22;8501;49.926;8.404;2023-08-06T05:17:37;17.10;99.90
16767;DHT22;8501;49.926;8.404;2023-08-06T05:20:03;17.10;99.90
16767;DHT22;8501;49.926;8.404;2023-08-06T05:22:29;17.10;99.90
16767;DHT22;8501;49.926;8.404;2023-08-06T05:24:55;17.20;99.90
16767;DHT22;8501;49.926;8.404;2023-08-06T05:27:20;17.20;99.90
16767;DHT22;8501;49.926;8.404;2023-08-06T05:29:48;17.10;99.90
16767;DHT22;8501;49.926;8.404;2023-08-06T05:32:13;17.10;99.90
16767;DHT22;8501;49.926;8.404;2023-08-06T05:34:39;17.20;99.90
16767;DHT22;8501;49.926;8.404;2023-08-06T05:37:05;17.20;99.90
16767;DHT22;8501;49.926;8.404;2023-08-06T05:39:30;17.20;99.90
16767;DHT22;8501;49.926;8.404;2023-08-06T05:41:56;17.20;99.90
16767;DHT22;8501;49.926;8.404;2023-08-06T05:44:23;17.20;99.90
16767;DHT22;8501;49.926;8.404;2023-08-06T05:46:49;17.10;99.90
16767;DHT22;8501;49.926;8.404;2023-08-06T05:49:14;17.20;99.90
16767;DHT22;8501;49.926;8.404;2023-08-06T05:51:40;17.20;99.90
16767;DHT22;8501;49.926;8.404;2023-08-06T05:54:06;17.20;99.90
16767;DHT22;8501;49.926;8.404;2023-08-06T05:56:31;17.10;99.90
16767;DHT22;8501;49.926;8.404;2023-08-06T05:58:57;17.10;99.90
16767;DHT22;8501;49.926;8.404;2023-08-06T06:01:22;17.10;99.90
16767;DHT22;8501;49.926;8.404;2023-08-06T06:03:48;17.10;99.90
16767;DHT22;8501;49.926;8.404;2023-08-06T06:06:14;17.10;99.90
16767;DHT22;8501;49.926;8.404;2023-08-06T06:08:40;17.10;99.90
16767;DHT22;8501;49.926;8.404;2023-08-06T06:11:05;17.10;99.90
16767;DHT22;8501;49.926;8.404;2023-08-06T06:13:31;17.10;99.90
16767;DHT22;8501;49.926;8.404;2023-08-06T06:15:56;17.20;99.90
16767;DHT22;8501;49.926;8.404;2023-08-06T06:18:22;17.10;99.90
16767;DHT22;8501;49.926;8.404;2023-08-06T06:20:48;17.10;99.90
16767;DHT22;8501;49.926;8.404;2023-08-06T06:23:13;17.10;99.90
16767;DHT22;8501;49.926;8.404;2023-08-06T06:25:47;17.10;99.90
16767;DHT22;8501;49.926;8.404;2023-08-06T06:28:13;17.10;99.90
16767;DHT22;8501;49.926;8.404;2023-08-06T06:30:40;17.10;99.90
16767;DHT22;8501;49.926;8.404;2023-08-06T06:33:06;17.10;99.90
16767;DHT22;8501;49.926;8.404;2023-08-06T06:35:31;17.10;99.90
16767;DHT22;8501;49.926;8.404;2023-08-06T06:37:57;17.00;99.90
16767;DHT22;8501;49.926;8.404;2023-08-06T06:40:22;17.10;99.90
16767;DHT22;8501;49.926;8.404;2023-08-06T06:42:48;17.00;99.90
16767;DHT22;8501;49.926;8.404;2023-08-06T06:45:14;17.00;99.90
16767;DHT22;8501;49.926;8.404;2023-08-06T06:47:40;17.10;99.90
16767;DHT22;8501;49.926;8.404;2023-08-06T06:50:06;17.10;99.90
16767;DHT22;8501;49.926;8.404;2023-08-06T06:52:32;17.10;99.90
16767;DHT22;8501;49.926;8.404;2023-08-06T06:54:58;17.10;99.90
16767;DHT22;8501;49.926;8.404;2023-08-06T06:57:24;17.10;99.90
16767;DHT22;8501;49.926;8.404;2023-08-06T06:59:49;17.10;99.90
16767;DHT22;8501;49.926;8.404;2023-08-06T07:02:15;17.10;99.90
16767;DHT22;8501;49.926;8.404;2023-08-06T07:04:40;17.10;99.90
16767;DHT22;8501;49.926;8.404;2023-08-06T07:07:06;17.10;99.90
16767;DHT22;8501;49.926;8.404;2023-08-06T07:09:31;17.10;99.90
16767;DHT22;8501;49.926;8.404;2023-08-06T07:11:57;17.10;99.90
16767;DHT22;8501;49.926;8.404;2023-08-06T07:14:25;17.00;99.90
16767;DHT22;8501;49.926;8.404;2023-08-06T07:16:51;17.00;99.90
16767;DHT22;8501;49.926;8.404;2023-08-06T07:19:16;17.00;99.90
16767;DHT22;8501;49.926;8.404;2023-08-06T07:21:42;17.00;99.90
16767;DHT22;8501;49.926;8.404;2023-08-06T07:24:08;17.00;99.90
16767;DHT22;8501;49.926;8.404;2023-08-06T07:26:35;17.10;99.90
16767;DHT22;8501;49.926;8.404;2023-08-06T07:29:00;17.00;99.90
16767;DHT22;8501;49.926;8.404;2023-08-06T07:31:26;17.00;99.90
16767;DHT22;8501;49.926;8.404;2023-08-06T07:33:52;17.10;99.90
16767;DHT22;8501;49.926;8.404;2023-08-06T07:36:17;17.00;99.90
16767;DHT22;8501;49.926;8.404;2023-08-06T07:38:43;16.90;99.90
16767;DHT22;8501;49.926;8.404;2023-08-06T07:41:09;17.00;99.90
16767;DHT22;8501;49.926;8.404;2023-08-06T07:43:35;17.00;99.90
16767;DHT22;8501;49.926;8.404;2023-08-06T07:46:03;17.10;99.90
16767;DHT22;8501;49.926;8.404;2023-08-06T07:48:29;17.10;99.90
16767;DHT22;8501;49.926;8.404;2023-08-06T07:50:55;17.10;99.90
16767;DHT22;8501;49.926;8.404;2023-08-06T07:53:21;17.10;99.90
16767;DHT22;8501;49.926;8.404;2023-08-06T07:55:50;17.10;99.90
16767;DHT22;8501;49.926;8.404;2023-08-06T07:58:16;17.20;99.90
16767;DHT22;8501;49.926;8.404;2023-08-06T08:00:41;17.20;99.90
16767;DHT22;8501;49.926;8.404;2023-08-06T08:03:10;17.30;99.90
16767;DHT22;8501;49.926;8.404;2023-08-06T08:05:36;17.30;99.90
16767;DHT22;8501;49.926;8.404;2023-08-06T08:08:01;17.40;99.90
16767;DHT22;8501;49.926;8.404;2023-08-06T08:10:27;17.40;99.90
16767;DHT22;8501;49.926;8.404;2023-08-06T08:12:52;17.40;99.90
16767;DHT22;8501;49.926;8.404;2023-08-06T08:15:18;17.40;99.90
16767;DHT22;8501;49.926;8.404;2023-08-06T08:17:44;17.50;99.90
16767;DHT22;8501;49.926;8.404;2023-08-06T08:20:10;17.50;99.90
16767;DHT22;8501;49.926;8.404;2023-08-06T08:22:35;17.60;99.90
16767;DHT22;8501;49.926;8.404;2023-08-06T08:25:01;17.70;99.90
16767;DHT22;8501;49.926;8.404;2023-08-06T08:27:26;17.80;99.90
16767;DHT22;8501;49.926;8.404;2023-08-06T08:29:52;17.80;99.90
16767;DHT22;8501;49.926;8.404;2023-08-06T08:32:17;17.90;99.90
16767;DHT22;8501;49.926;8.404;2023-08-06T08:34:43;18.00;99.90
16767;DHT22;8501;49.926;8.404;2023-08-06T08:37:09;18.10;99.90
16767;DHT22;8501;49.926;8.404;2023-08-06T08:39:35;18.20;99.90
16767;DHT22;8501;49.926;8.404;2023-08-06T08:42:00;18.20;99.90
16767;DHT22;8501;49.926;8.404;2023-08-06T08:44:27;18.20;99.90
16767;DHT22;8501;49.926;8.404;2023-08-06T08:46:55;18.30;99.90
16767;DHT22;8501;49.926;8.404;2023-08-06T08:49:23;18.30;99.90
16767;DHT22;8501;49.926;8.404;2023-08-06T08:51:50;18.40;99.90
16767;DHT22;8501;49.926;8.404;2023-08-06T08:54:18;18.40;99.90
16767;DHT22;8501;49.926;8.404;2023-08-06T08:56:45;18.50;99.90
16767;DHT22;8501;49.926;8.404;2023-08-06T08:59:11;18.40;99.90
16767;DHT22;8501;49.926;8.404;2023-08-06T09:01:39;18.40;99.90
16767;DHT22;8501;49.926;8.404;2023-08-06T09:04:05;18.40;99.90
16767;DHT22;8501;49.926;8.404;2023-08-06T09:06:33;18.40;99.90
16767;DHT22;8501;49.926;8.404;2023-08-06T09:09:08;18.30;99.90
16767;DHT22;8501;49.926;8.404;2023-08-06T09:11:39;18.10;99.90
16767;DHT22;8501;49.926;8.404;2023-08-06T09:14:07;18.10;99.90
16767;DHT22;8501;49.926;8.404;2023-08-06T09:16:37;18.10;99.90
16767;DHT22;8501;49.926;8.404;2023-08-06T09:19:13;18.10;99.90
16767;DHT22;8501;49.926;8.404;2023-08-06T09:21:41;18.10;99.90
16767;DHT22;8501;49.926;8.404;2023-08-06T09:24:08;18.00;99.90
16767;DHT22;8501;49.926;8.404;2023-08-06T09:26:34;17.80;99.90
16767;DHT22;8501;49.926;8.404;2023-08-06T09:29:00;17.50;99.90
16767;DHT22;8501;49.926;8.404;2023-08-06T09:31:42;17.60;99.90
16767;DHT22;8501;49.926;8.404;2023-08-06T09:34:12;17.50;99.90
16767;DHT22;8501;49.926;8.404;2023-08-06T09:36:41;17.50;99.90
16767;DHT22;8501;49.926;8.404;2023-08-06T09:39:14;17.60;99.90
16767;DHT22;8501;49.926;8.404;2023-08-06T09:41:40;17.60;99.90
16767;DHT22;8501;49.926;8.404;2023-08-06T09:46:40;17.80;99.90
16767;DHT22;8501;49.926;8.404;2023-08-06T09:49:06;18.00;99.90
16767;DHT22;8501;49.926;8.404;2023-08-06T09:51:34;18.10;99.90
16767;DHT22;8501;49.926;8.404;2023-08-06T09:54:00;18.10;99.90
16767;DHT22;8501;49.926;8.404;2023-08-06T09:56:27;18.20;99.90
16767;DHT22;8501;49.926;8.404;2023-08-06T09:58:54;18.20;99.90
16767;DHT22;8501;49.926;8.404;2023-08-06T10:01:21;18.30;99.90
16767;DHT22;8501;49.926;8.404;2023-08-06T10:03:47;18.30;99.90
16767;DHT22;8501;49.926;8.404;2023-08-06T10:06:14;18.30;99.90
16767;DHT22;8501;49.926;8.404;2023-08-06T10:08:40;18.30;99.90
16767;DHT22;8501;49.926;8.404;2023-08-06T10:11:07;18.20;99.90
16767;DHT22;8501;49.926;8.404;2023-08-06T10:13:33;18.30;99.90
16767;DHT22;8501;49.926;8.404;2023-08-06T10:16:01;18.40;99.90
16767;DHT22;8501;49.926;8.404;2023-08-06T10:18:27;18.50;99.90
16767;DHT22;8501;49.926;8.404;2023-08-06T10:20:54;18.60;99.90
16767;DHT22;8501;49.926;8.404;2023-08-06T10:23:19;18.70;99.90
16767;DHT22;8501;49.926;8.404;2023-08-06T10:25:53;18.70;99.90
16767;DHT22;8501;49.926;8.404;2023-08-06T10:28:20;18.70;99.90
16767;DHT22;8501;49.926;8.404;2023-08-06T10:30:47;18.70;99.90
16767;DHT22;8501;49.926;8.404;2023-08-06T10:33:13;18.70;99.90
16767;DHT22;8501;49.926;8.404;2023-08-06T10:35:44;18.80;99.90
16767;DHT22;8501;49.926;8.404;2023-08-06T10:38:12;18.80;99.90
16767;DHT22;8501;49.926;8.404;2023-08-06T10:40:42;18.90;99.90
16767;DHT22;8501;49.926;8.404;2023-08-06T10:43:07;19.00;99.90
16767;DHT22;8501;49.926;8.404;2023-08-06T10:45:49;19.10;99.90
16767;DHT22;8501;49.926;8.404;2023-08-06T10:48:33;19.10;99.90
16767;DHT22;8501;49.926;8.404;2023-08-06T10:51:00;19.20;99.90
16767;DHT22;8501;49.926;8.404;2023-08-06T10:53:26;19.30;99.90
16767;DHT22;8501;49.926;8.404;2023-08-06T10:55:51;19.50;99.90
16767;DHT22;8501;49.926;8.404;2023-08-06T10:58:17;19.50;99.90
16767;DHT22;8501;49.926;8.404;2023-08-06T11:00:43;19.30;99.90
16767;DHT22;8501;49.926;8.404;2023-08-06T11:03:09;19.30;99.90
16767;DHT22;8501;49.926;8.404;2023-08-06T11:05:35;19.10;99.90
16767;DHT22;8501;49.926;8.404;2023-08-06T11:08:01;19.00;99.90
16767;DHT22;8501;49.926;8.404;2023-08-06T11:10:26;18.70;99.90
16767;DHT22;8501;49.926;8.404;2023-08-06T11:12:52;18.60;99.90
16767;DHT22;8501;49.926;8.404;2023-08-06T11:15:20;18.60;99.90
16767;DHT22;8501;49.926;8.404;2023-08-06T11:17:46;18.40;99.90
16767;DHT22;8501;49.926;8.404;2023-08-06T11:20:12;18.40;99.90
16767;DHT22;8501;49.926;8.404;2023-08-06T11:22:37;18.50;99.90
16767;DHT22;8501;49.926;8.404;2023-08-06T11:25:05;18.50;99.90
16767;DHT22;8501;49.926;8.404;2023-08-06T11:27:31;18.50;99.90
16767;DHT22;8501;49.926;8.404;2023-08-06T11:29:56;18.50;99.90
16767;DHT22;8501;49.926;8.404;2023-08-06T11:32:22;18.50;99.90
16767;DHT22;8501;49.926;8.404;2023-08-06T11:34:48;18.40;99.90
16767;DHT22;8501;49.926;8.404;2023-08-06T11:37:13;18.30;99.90
16767;DHT22;8501;49.926;8.404;2023-08-06T11:39:46;18.30;99.90
16767;DHT22;8501;49.926;8.404;2023-08-06T11:42:12;18.20;99.90
16767;DHT22;8501;49.926;8.404;2023-08-06T11:44:37;18.20;99.90
16767;DHT22;8501;49.926;8.404;2023-08-06T11:47:04;18.10;99.90
16767;DHT22;8501;49.926;8.404;2023-08-06T11:49:48;18.10;99.90
16767;DHT22;8501;49.926;8.404;2023-08-06T11:52:18;18.10;99.90
16767;DHT22;8501;49.926;8.404;2023-08-06T11:55:18;18.10;99.90
16767;DHT22;8501;49.926;8.404;2023-08-06T11:57:38;18.10;99.90
16767;DHT22;8501;49.926;8.404;2023-08-06T12:00:10;18.00;99.90
16767;DHT22;8501;49.926;8.404;2023-08-06T12:02:38;18.10;99.90
16767;DHT22;8501;49.926;8.404;2023-08-06T12:07:31;18.00;99.90
16767;DHT22;8501;49.926;8.404;2023-08-06T12:09:57;18.00;99.90
16767;DHT22;8501;49.926;8.404;2023-08-06T12:12:23;17.90;99.90
16767;DHT22;8501;49.926;8.404;2023-08-06T12:14:49;17.90;99.90
16767;DHT22;8501;49.926;8.404;2023-08-06T12:17:15;17.90;99.90
16767;DHT22;8501;49.926;8.404;2023-08-06T12:19:40;18.10;99.90
16767;DHT22;8501;49.926;8.404;2023-08-06T12:22:06;18.10;99.90
16767;DHT22;8501;49.926;8.404;2023-08-06T12:24:32;18.00;99.90
16767;DHT22;8501;49.926;8.404;2023-08-06T12:26:58;18.00;99.90
16767;DHT22;8501;49.926;8.404;2023-08-06T12:29:25;18.00;99.90
16767;DHT22;8501;49.926;8.404;2023-08-06T12:31:50;18.00;99.90
16767;DHT22;8501;49.926;8.404;2023-08-06T12:34:16;18.00;99.90
16767;DHT22;8501;49.926;8.404;2023-08-06T12:36:41;17.90;99.90
16767;DHT22;8501;49.926;8.404;2023-08-06T12:39:07;17.90;99.90
16767;DHT22;8501;49.926;8.404;2023-08-06T12:41:32;17.90;99.90
16767;DHT22;8501;49.926;8.404;2023-08-06T12:43:58;18.00;99.90
16767;DHT22;8501;49.926;8.404;2023-08-06T12:46:23;17.90;99.90
16767;DHT22;8501;49.926;8.404;2023-08-06T12:48:49;17.90;99.90
16767;DHT22;8501;49.926;8.404;2023-08-06T12:51:14;17.90;99.90
16767;DHT22;8501;49.926;8.404;2023-08-06T12:53:40;17.90;99.90
16767;DHT22;8501;49.926;8.404;2023-08-06T12:56:05;17.90;99.90
16767;DHT22;8501;49.926;8.404;2023-08-06T12:58:31;17.80;99.90
16767;DHT22;8501;49.926;8.404;2023-08-06T13:00:56;17.90;99.90
16767;DHT22;8501;49.926;8.404;2023-08-06T13:03:22;17.80;99.90
16767;DHT22;8501;49.926;8.404;2023-08-06T13:05:47;17.80;99.90
16767;DHT22;8501;49.926;8.404;2023-08-06T13:08:13;17.70;99.90
16767;DHT22;8501;49.926;8.404;2023-08-06T13:10:39;17.70;99.90
16767;DHT22;8501;49.926;8.404;2023-08-06T13:13:04;17.70;99.90
16767;DHT22;8501;49.926;8.404;2023-08-06T13:15:30;17.80;99.90
16767;DHT22;8501;49.926;8.404;2023-08-06T13:17:56;17.80;99.90
16767;DHT22;8501;49.926;8.404;2023-08-06T13:20:21;17.80;99.90
16767;DHT22;8501;49.926;8.404;2023-08-06T13:22:48;17.70;99.90
16767;DHT22;8501;49.926;8.404;2023-08-06T13:25:16;17.60;99.90
16767;DHT22;8501;49.926;8.404;2023-08-06T13:27:42;17.60;99.90
16767;DHT22;8501;49.926;8.404;2023-08-06T13:30:10;17.60;99.90
16767;DHT22;8501;49.926;8.404;2023-08-06T13:32:35;17.60;99.90
16767;DHT22;8501;49.926;8.404;2023-08-06T13:35:03;17.60;99.90
16767;DHT22;8501;49.926;8.404;2023-08-06T13:37:29;17.50;99.90
16767;DHT22;8501;49.926;8.404;2023-08-06T13:39:55;17.50;99.90
16767;DHT22;8501;49.926;8.404;2023-08-06T13:42:20;17.40;99.90
16767;DHT22;8501;49.926;8.404;2023-08-06T13:44:46;17.50;99.90
16767;DHT22;8501;49.926;8.404;2023-08-06T13:47:11;17.60;99.90
16767;DHT22;8501;49.926;8.404;2023-08-06T13:49:37;17.50;99.90
16767;DHT22;8501;49.926;8.404;2023-08-06T13:52:03;17.50;99.90
16767;DHT22;8501;49.926;8.404;2023-08-06T13:54:28;17.70;99.90
16767;DHT22;8501;49.926;8.404;2023-08-06T13:56:54;17.70;99.90
16767;DHT22;8501;49.926;8.404;2023-08-06T13:59:19;17.60;99.90
16767;DHT22;8501;49.926;8.404;2023-08-06T14:01:45;17.70;99.90
16767;DHT22;8501;49.926;8.404;2023-08-06T14:04:12;17.70;99.90
16767;DHT22;8501;49.926;8.404;2023-08-06T14:06:37;17.70;99.90
16767;DHT22;8501;49.926;8.404;2023-08-06T14:09:03;17.70;99.90
16767;DHT22;8501;49.926;8.404;2023-08-06T14:11:29;17.70;99.90
16767;DHT22;8501;49.926;8.404;2023-08-06T14:13:55;17.70;99.90
16767;DHT22;8501;49.926;8.404;2023-08-06T14:16:20;17.70;99.90
16767;DHT22;8501;49.926;8.404;2023-08-06T14:18:46;17.50;99.90
16767;DHT22;8501;49.926;8.404;2023-08-06T14:21:11;17.60;99.90
16767;DHT22;8501;49.926;8.404;2023-08-06T14:23:37;17.60;99.90
16767;DHT22;8501;49.926;8.404;2023-08-06T14:26:02;17.60;99.90
16767;DHT22;8501;49.926;8.404;2023-08-06T14:28:28;17.60;99.90
16767;DHT22;8501;49.926;8.404;2023-08-06T14:30:54;17.60;99.90
16767;DHT22;8501;49.926;8.404;2023-08-06T14:33:19;17.70;99.90
16767;DHT22;8501;49.926;8.404;2023-08-06T14:35:45;17.70;99.90
16767;DHT22;8501;49.926;8.404;2023-08-06T14:38:11;17.70;99.90
16767;DHT22;8501;49.926;8.404;2023-08-06T14:40:36;17.70;99.90
16767;DHT22;8501;49.926;8.404;2023-08-06T14:43:07;17.70;99.90
16767;DHT22;8501;49.926;8.404;2023-08-06T14:45:32;17.60;99.90
16767;DHT22;8501;49.926;8.404;2023-08-06T14:47:58;17.60;99.90
16767;DHT22;8501;49.926;8.404;2023-08-06T14:50:23;17.60;99.90
16767;DHT22;8501;49.926;8.404;2023-08-06T14:52:49;17.50;99.90
16767;DHT22;8501;49.926;8.404;2023-08-06T14:55:24;17.60;99.90
16767;DHT22;8501;49.926;8.404;2023-08-06T14:57:51;17.60;99.90
16767;DHT22;8501;49.926;8.404;2023-08-06T15:00:16;17.60;99.90
16767;DHT22;8501;49.926;8.404;2023-08-06T15:02:42;17.60;99.90
16767;DHT22;8501;49.926;8.404;2023-08-06T15:05:08;17.60;99.90
16767;DHT22;8501;49.926;8.404;2023-08-06T15:07:33;17.50;99.90
16767;DHT22;8501;49.926;8.404;2023-08-06T15:10:01;17.50;99.90
16767;DHT22;8501;49.926;8.404;2023-08-06T15:12:27;17.40;99.90
16767;DHT22;8501;49.926;8.404;2023-08-06T15:14:53;17.40;99.90
16767;DHT22;8501;49.926;8.404;2023-08-06T15:17:22;17.50;99.90
16767;DHT22;8501;49.926;8.404;2023-08-06T15:19:47;17.50;99.90
16767;DHT22;8501;49.926;8.404;2023-08-06T15:22:13;17.50;99.90
16767;DHT22;8501;49.926;8.404;2023-08-06T15:24:39;17.50;99.90
16767;DHT22;8501;49.926;8.404;2023-08-06T15:27:08;17.40;99.90
16767;DHT22;8501;49.926;8.404;2023-08-06T15:29:33;17.50;99.90
16767;DHT22;8501;49.926;8.404;2023-08-06T15:31:59;17.50;99.90
16767;DHT22;8501;49.926;8.404;2023-08-06T15:34:24;17.40;99.90
16767;DHT22;8501;49.926;8.404;2023-08-06T15:36:50;17.40;99.90
16767;DHT22;8501;49.926;8.404;2023-08-06T15:39:15;17.40;99.90
16767;DHT22;8501;49.926;8.404;2023-08-06T15:41:41;17.40;99.90
16767;DHT22;8501;49.926;8.404;2023-08-06T15:44:06;17.40;99.90
16767;DHT22;8501;49.926;8.404;2023-08-06T15:46:32;17.30;99.90
16767;DHT22;8501;49.926;8.404;2023-08-06T15:49:00;17.30;99.90
16767;DHT22;8501;49.926;8.404;2023-08-06T15:51:25;17.30;99.90
16767;DHT22;8501;49.926;8.404;2023-08-06T15:53:51;17.30;99.90